Time;durP1;ratioP1;P1;durP2;ratioP2;P2;SDS_P1;SDS_P2;PMS_P1;PMS_P2;Temp;Humidity;BMP_temperature;BMP_pressure;BME280_temperature;BME280_humidity;BME280_pressure;Samples;Min_cycle;Max_cycle;Signal;HPM_P1;HPM_P2
2023/08/18 00:00:47;;;;;;;;;;;21.90;78.30;;;;;;4112580;28;20403;-47
2023/08/18 00:03:27;;;;;;;;;;;22.00;77.60;;;;;;4107615;28;19941;-40
2023/08/18 00:06:08;;;;;;;;;;;21.90;77.50;;;;;;4118656;28;19937;-40
2023/08/18 00:08:49;;;;;;;;;;;21.90;77.60;;;;;;4122852;28;20289;-40
2023/08/18 00:11:30;;;;;;;;;;;21.90;77.70;;;;;;4122653;28;19936;-46
2023/08/18 00:14:11;;;;;;;;;;;21.90;77.60;;;;;;4122884;28;20316;-46
2023/08/18 00:16:53;;;;;;;;;;;21.90;77.80;;;;;;4131433;28;19983;-46
2023/08/18 00:19:33;;;;;;;;;;;22.00;77.80;;;;;;4123156;28;20396;-47
2023/08/18 00:22:14;;;;;;;;;;;21.90;77.80;;;;;;4122356;28;20472;-48
2023/08/18 00:24:56;;;;;;;;;;;21.90;78.60;;;;;;4122518;28;19999;-40
2023/08/18 00:27:37;;;;;;;;;;;21.90;77.80;;;;;;4121539;28;19932;-40
2023/08/18 00:30:19;;;;;;;;;;;21.90;77.80;;;;;;4121923;28;20052;-40
2023/08/18 00:33:02;;;;;;;;;;;21.90;77.90;;;;;;4127942;28;19937;-40
2023/08/18 00:35:46;;;;;;;;;;;21.90;77.90;;;;;;4116435;28;19953;-40
2023/08/18 00:38:27;;;;;;;;;;;21.90;77.80;;;;;;4115384;28;20348;-40
2023/08/18 00:41:09;;;;;;;;;;;21.90;78.00;;;;;;4116247;28;19933;-40
2023/08/18 00:43:49;;;;;;;;;;;21.90;78.00;;;;;;4108880;28;19933;-40
2023/08/18 00:46:31;;;;;;;;;;;21.90;78.00;;;;;;4132249;28;20455;-40
2023/08/18 00:49:15;;;;;;;;;;;21.90;78.90;;;;;;4121783;28;20012;-43
2023/08/18 00:51:57;;;;;;;;;;;21.80;77.90;;;;;;4122125;28;20404;-44
2023/08/18 00:54:38;;;;;;;;;;;21.90;78.90;;;;;;4122544;28;19949;-44
2023/08/18 00:57:21;;;;;;;;;;;21.80;78.00;;;;;;4120761;28;19968;-46
2023/08/18 01:00:02;;;;;;;;;;;21.80;78.00;;;;;;4108892;28;20089;-45
2023/08/18 01:02:45;;;;;;;;;;;21.80;78.00;;;;;;4112192;28;19976;-44
2023/08/18 01:05:27;;;;;;;;;;;21.90;78.10;;;;;;4111446;28;19983;-39
2023/08/18 01:08:08;;;;;;;;;;;21.90;78.10;;;;;;4112298;28;19972;-40
2023/08/18 01:10:53;;;;;;;;;;;21.90;78.10;;;;;;4122100;28;20071;-40
2023/08/18 01:13:37;;;;;;;;;;;21.80;78.10;;;;;;4120455;28;20056;-45
2023/08/18 01:16:21;;;;;;;;;;;21.90;78.20;;;;;;4121395;28;19936;-46
2023/08/18 01:19:03;;;;;;;;;;;21.90;78.10;;;;;;4113777;28;19949;-46
2023/08/18 01:21:46;;;;;;;;;;;21.80;78.10;;;;;;4105443;28;19933;-44
2023/08/18 01:24:29;;;;;;;;;;;21.80;78.10;;;;;;4121758;28;20289;-47
2023/08/18 01:27:10;;;;;;;;;;;21.80;78.20;;;;;;4122129;28;20002;-44
2023/08/18 01:29:50;;;;;;;;;;;21.80;78.10;;;;;;4121549;28;19933;-45
2023/08/18 01:32:45;;;;;;;;;;;21.80;78.20;;;;;;4121097;28;20301;-44
2023/08/18 01:35:28;;;;;;;;;;;21.90;78.20;;;;;;4115791;28;19933;-45
2023/08/18 01:38:10;;;;;;;;;;;21.80;78.10;;;;;;4108850;28;19938;-45
2023/08/18 01:40:52;;;;;;;;;;;21.90;78.30;;;;;;4120805;28;19936;-47
2023/08/18 01:43:33;;;;;;;;;;;21.80;78.30;;;;;;4120964;28;20392;-45
2023/08/18 01:46:14;;;;;;;;;;;21.80;78.30;;;;;;4121116;28;19933;-45
2023/08/18 01:48:55;;;;;;;;;;;21.80;78.30;;;;;;4130844;28;20297;-44
2023/08/18 01:51:36;;;;;;;;;;;21.80;78.30;;;;;;4111246;28;19933;-44
2023/08/18 01:54:16;;;;;;;;;;;21.80;78.30;;;;;;4120913;28;19948;-47
2023/08/18 01:56:59;;;;;;;;;;;21.80;78.30;;;;;;4131643;28;19952;-39
2023/08/18 01:59:40;;;;;;;;;;;21.80;78.40;;;;;;4132336;28;19941;-39
2023/08/18 02:02:21;;;;;;;;;;;21.80;78.40;;;;;;4131292;28;20056;-39
2023/08/18 02:05:02;;;;;;;;;;;21.80;78.40;;;;;;4132126;28;20019;-40
2023/08/18 02:07:43;;;;;;;;;;;21.80;78.40;;;;;;4104714;28;19933;-40
2023/08/18 02:10:24;;;;;;;;;;;21.80;78.40;;;;;;4112291;28;20332;-39
2023/08/18 02:13:06;;;;;;;;;;;21.80;78.40;;;;;;4119900;28;19937;-40
2023/08/18 02:15:47;;;;;;;;;;;21.80;78.40;;;;;;4119576;28;19932;-46
2023/08/18 02:18:29;;;;;;;;;;;21.80;79.30;;;;;;4120406;28;19996;-48
2023/08/18 02:21:10;;;;;;;;;;;21.80;78.50;;;;;;4108814;28;19933;-44
2023/08/18 02:23:51;;;;;;;;;;;21.80;78.40;;;;;;4118262;28;19936;-46
2023/08/18 02:26:33;;;;;;;;;;;21.80;79.40;;;;;;4105233;28;19984;-49
2023/08/18 02:29:15;;;;;;;;;;;21.80;78.50;;;;;;4115904;28;20273;-49
2023/08/18 02:31:59;;;;;;;;;;;21.70;78.50;;;;;;4124680;28;19932;-40
2023/08/18 02:34:39;;;;;;;;;;;21.70;78.50;;;;;;4124195;28;20407;-40
2023/08/18 02:37:20;;;;;;;;;;;21.70;78.60;;;;;;4135102;28;19933;-39
2023/08/18 02:40:01;;;;;;;;;;;21.70;78.60;;;;;;4132621;28;20019;-40
2023/08/18 02:42:42;;;;;;;;;;;21.70;79.50;;;;;;4123114;28;19936;-40
2023/08/18 02:45:25;;;;;;;;;;;21.70;78.60;;;;;;4123889;28;20064;-40
2023/08/18 02:48:06;;;;;;;;;;;21.70;78.70;;;;;;4134195;28;20432;-39
2023/08/18 02:50:47;;;;;;;;;;;21.70;78.70;;;;;;4122673;28;19936;-39
2023/08/18 02:53:28;;;;;;;;;;;21.70;78.80;;;;;;4122045;28;20277;-40
2023/08/18 02:56:09;;;;;;;;;;;21.70;78.80;;;;;;4123173;28;19944;-40
2023/08/18 02:58:51;;;;;;;;;;;21.70;78.80;;;;;;4123521;28;19937;-40
2023/08/18 03:01:33;;;;;;;;;;;21.70;78.80;;;;;;4117516;28;19945;-40
2023/08/18 03:04:15;;;;;;;;;;;21.70;78.80;;;;;;4117643;28;19992;-44
2023/08/18 03:06:56;;;;;;;;;;;21.70;78.80;;;;;;4107982;28;20377;-46
2023/08/18 03:09:37;;;;;;;;;;;21.70;78.80;;;;;;4132431;28;20435;-40
2023/08/18 03:12:18;;;;;;;;;;;21.70;78.90;;;;;;4133786;28;20076;-41
2023/08/18 03:14:59;;;;;;;;;;;21.70;78.80;;;;;;4106727;28;19992;-40
2023/08/18 03:17:41;;;;;;;;;;;21.70;79.00;;;;;;4106564;28;19932;-40
2023/08/18 03:20:21;;;;;;;;;;;21.70;79.00;;;;;;4123476;28;19933;-40
2023/08/18 03:23:03;;;;;;;;;;;21.70;79.00;;;;;;4121841;28;19936;-40
2023/08/18 03:25:44;;;;;;;;;;;21.70;79.00;;;;;;4122993;28;19976;-41
2023/08/18 03:28:25;;;;;;;;;;;21.70;79.10;;;;;;4121533;28;19976;-44
2023/08/18 03:31:06;;;;;;;;;;;21.70;79.10;;;;;;4120153;28;20024;-44
2023/08/18 03:33:49;;;;;;;;;;;21.70;79.10;;;;;;4107031;28;19937;-48
2023/08/18 03:36:33;;;;;;;;;;;21.70;79.20;;;;;;4117025;28;20447;-48
2023/08/18 03:39:14;;;;;;;;;;;21.70;79.30;;;;;;4116103;28;20039;-46
2023/08/18 03:41:54;;;;;;;;;;;21.70;79.30;;;;;;4122766;28;19937;-47
2023/08/18 03:44:35;;;;;;;;;;;21.70;79.40;;;;;;4121744;28;19932;-47
2023/08/18 03:47:16;;;;;;;;;;;21.70;80.30;;;;;;4115316;28;20372;-44
2023/08/18 03:49:58;;;;;;;;;;;21.70;79.50;;;;;;4120044;28;19941;-47
2023/08/18 03:52:39;;;;;;;;;;;21.60;79.40;;;;;;4117530;28;19937;-45
2023/08/18 03:55:20;;;;;;;;;;;21.60;79.40;;;;;;4117110;28;19932;-44
2023/08/18 03:58:01;;;;;;;;;;;21.60;79.50;;;;;;4117647;28;19932;-45
2023/08/18 04:00:42;;;;;;;;;;;21.60;79.50;;;;;;4122539;28;19956;-45
2023/08/18 04:03:22;;;;;;;;;;;21.60;79.60;;;;;;4121811;28;19979;-46
2023/08/18 04:06:05;;;;;;;;;;;21.60;79.60;;;;;;4121525;28;20130;-40
2023/08/18 04:08:47;;;;;;;;;;;21.60;79.70;;;;;;4122566;28;20301;-40
2023/08/18 04:11:27;;;;;;;;;;;21.60;79.70;;;;;;4122134;28;19988;-41
2023/08/18 04:14:09;;;;;;;;;;;21.60;79.60;;;;;;4121575;28;20297;-40
2023/08/18 04:16:51;;;;;;;;;;;21.60;79.80;;;;;;4121785;28;20404;-45
2023/08/18 04:19:31;;;;;;;;;;;21.60;79.80;;;;;;4120846;28;19937;-44
2023/08/18 04:22:14;;;;;;;;;;;21.60;79.80;;;;;;4110339;28;19941;-46
2023/08/18 04:24:54;;;;;;;;;;;21.60;79.80;;;;;;4106692;28;19937;-46
2023/08/18 04:27:35;;;;;;;;;;;21.60;79.90;;;;;;4126873;28;19979;-48
2023/08/18 04:30:17;;;;;;;;;;;21.60;79.90;;;;;;4121414;28;20019;-44
2023/08/18 04:32:57;;;;;;;;;;;21.60;79.90;;;;;;4131716;28;19937;-49
2023/08/18 04:35:39;;;;;;;;;;;21.60;79.90;;;;;;4121593;28;19937;-45
2023/08/18 04:38:23;;;;;;;;;;;21.60;80.00;;;;;;4108904;28;19965;-46
2023/08/18 04:41:04;;;;;;;;;;;21.60;80.00;;;;;;4116368;28;19976;-47
2023/08/18 04:43:45;;;;;;;;;;;21.60;80.00;;;;;;4111090;28;20064;-48
2023/08/18 04:46:27;;;;;;;;;;;21.60;80.00;;;;;;4119763;28;19937;-46
2023/08/18 04:49:12;;;;;;;;;;;21.60;80.10;;;;;;4120672;28;20019;-45
2023/08/18 04:51:54;;;;;;;;;;;21.60;80.10;;;;;;4119775;28;19936;-40
2023/08/18 04:54:36;;;;;;;;;;;21.60;80.50;;;;;;4119617;28;19933;-40
2023/08/18 04:57:17;;;;;;;;;;;21.60;80.10;;;;;;4122063;28;19937;-40
2023/08/18 04:59:58;;;;;;;;;;;21.60;80.20;;;;;;4122712;28;20072;-40
2023/08/18 05:02:39;;;;;;;;;;;21.60;80.20;;;;;;4121211;28;19999;-40
2023/08/18 05:05:20;;;;;;;;;;;21.60;80.20;;;;;;4114818;28;19937;-44
2023/08/18 05:08:02;;;;;;;;;;;21.60;81.10;;;;;;4104981;28;19937;-46
2023/08/18 05:10:44;;;;;;;;;;;21.60;80.30;;;;;;4116304;28;19933;-46
2023/08/18 05:13:25;;;;;;;;;;;21.60;80.30;;;;;;4118855;28;20264;-47
2023/08/18 05:16:06;;;;;;;;;;;21.60;81.20;;;;;;4105575;28;20046;-49
2023/08/18 05:18:47;;;;;;;;;;;21.60;80.30;;;;;;4105912;28;19933;-45
2023/08/18 05:21:29;;;;;;;;;;;21.60;80.40;;;;;;4106173;28;25459;-46
2023/08/18 05:24:10;;;;;;;;;;;21.60;80.40;;;;;;4122032;28;20483;-45
2023/08/18 05:26:53;;;;;;;;;;;21.60;80.50;;;;;;4121169;28;19951;-44
2023/08/18 05:29:33;;;;;;;;;;;21.60;80.50;;;;;;4121470;28;20301;-45
2023/08/18 05:32:14;;;;;;;;;;;21.60;81.50;;;;;;4120025;28;19980;-43
2023/08/18 05:34:57;;;;;;;;;;;21.60;80.60;;;;;;4121469;28;19936;-42
2023/08/18 05:37:38;;;;;;;;;;;21.60;80.60;;;;;;4122183;28;19933;-43
2023/08/18 05:40:19;;;;;;;;;;;21.60;81.80;;;;;;4136219;28;19933;-44
2023/08/18 05:43:01;;;;;;;;;;;21.60;81.00;;;;;;4124725;28;19932;-43
2023/08/18 05:45:43;;;;;;;;;;;21.70;81.10;;;;;;4121405;28;20065;-47
2023/08/18 05:48:24;;;;;;;;;;;21.70;81.10;;;;;;4120722;28;19933;-44
2023/08/18 05:51:05;;;;;;;;;;;21.70;81.10;;;;;;4121750;28;19933;-47
2023/08/18 05:53:46;;;;;;;;;;;21.60;81.00;;;;;;4121843;28;20516;-49
2023/08/18 05:56:27;;;;;;;;;;;21.70;81.00;;;;;;4121305;28;19932;-44
2023/08/18 05:59:10;;;;;;;;;;;21.60;81.00;;;;;;4118967;28;20018;-46
2023/08/18 06:01:52;;;;;;;;;;;21.70;81.10;;;;;;4105145;28;19937;-43
2023/08/18 06:04:33;;;;;;;;;;;21.60;81.90;;;;;;4120721;28;19933;-49
2023/08/18 06:07:13;;;;;;;;;;;21.60;81.10;;;;;;4109048;28;20301;-44
2023/08/18 06:09:54;;;;;;;;;;;21.60;81.20;;;;;;4131501;28;19933;-43
2023/08/18 06:12:35;;;;;;;;;;;21.60;81.20;;;;;;4140625;28;19975;-39
2023/08/18 06:15:17;;;;;;;;;;;21.60;81.20;;;;;;4140172;28;19933;-44
2023/08/18 06:17:58;;;;;;;;;;;21.60;81.20;;;;;;4119352;28;20293;-43
2023/08/18 06:20:39;;;;;;;;;;;21.60;82.20;;;;;;4108283;28;20459;-43
2023/08/18 06:23:20;;;;;;;;;;;21.60;81.50;;;;;;4118497;28;20435;-42
2023/08/18 06:26:01;;;;;;;;;;;21.60;81.50;;;;;;4140787;28;19937;-43
2023/08/18 06:28:41;;;;;;;;;;;21.60;81.50;;;;;;4140564;28;19988;-43
2023/08/18 06:31:24;;;;;;;;;;;21.60;81.50;;;;;;4140357;28;19975;-44
2023/08/18 06:34:05;;;;;;;;;;;21.60;81.50;;;;;;4140184;28;19932;-45
2023/08/18 06:36:46;;;;;;;;;;;21.60;81.50;;;;;;4124424;28;20012;-45
2023/08/18 06:39:27;;;;;;;;;;;21.60;81.60;;;;;;4124468;28;19951;-43
2023/08/18 06:42:08;;;;;;;;;;;21.60;81.60;;;;;;4123606;28;19937;-43
2023/08/18 06:44:48;;;;;;;;;;;21.50;81.60;;;;;;4123069;28;19932;-46
2023/08/18 06:47:31;;;;;;;;;;;21.60;82.50;;;;;;4123278;28;19932;-45
2023/08/18 06:50:13;;;;;;;;;;;21.60;81.70;;;;;;4123368;28;19933;-43
2023/08/18 06:52:54;;;;;;;;;;;21.60;81.70;;;;;;4118287;28;19937;-46
2023/08/18 06:55:35;;;;;;;;;;;21.60;82.60;;;;;;4107387;28;19937;-44
2023/08/18 06:58:23;;;;;;;;;;;21.60;81.80;;;;;;4107520;28;20065;-44
2023/08/18 07:01:04;;;;;;;;;;;21.50;81.80;;;;;;4114584;28;20789;-46
2023/08/18 07:03:47;;;;;;;;;;;21.60;81.90;;;;;;4124241;28;19933;-43
2023/08/18 07:06:29;;;;;;;;;;;21.60;81.90;;;;;;4130628;28;20396;-47
2023/08/18 07:09:09;;;;;;;;;;;21.60;81.90;;;;;;4140041;28;19936;-48
2023/08/18 07:11:50;;;;;;;;;;;21.60;81.90;;;;;;4126617;28;20496;-46
2023/08/18 07:14:31;;;;;;;;;;;21.60;81.90;;;;;;4122862;28;20404;-43
2023/08/18 07:17:12;;;;;;;;;;;21.60;81.90;;;;;;4124434;28;19992;-45
2023/08/18 07:19:54;;;;;;;;;;;21.60;81.90;;;;;;4124820;28;20402;-43
2023/08/18 07:22:35;;;;;;;;;;;21.60;82.10;;;;;;4121881;28;19944;-46
2023/08/18 07:25:15;;;;;;;;;;;21.60;82.20;;;;;;4123937;28;20023;-43
2023/08/18 07:27:56;;;;;;;;;;;21.60;82.20;;;;;;4123377;28;19933;-40
2023/08/18 07:30:36;;;;;;;;;;;21.60;82.20;;;;;;4109672;28;19938;-39
2023/08/18 07:33:17;;;;;;;;;;;21.60;83.00;;;;;;4111155;28;19952;-39
2023/08/18 07:36:00;;;;;;;;;;;21.60;82.20;;;;;;4125552;28;19933;-40
2023/08/18 07:38:40;;;;;;;;;;;21.60;82.40;;;;;;4138798;28;19983;-40
2023/08/18 07:41:22;;;;;;;;;;;21.60;82.40;;;;;;4129346;28;20064;-40
2023/08/18 07:44:02;;;;;;;;;;;21.60;82.40;;;;;;4123316;28;19972;-39
2023/08/18 07:46:43;;;;;;;;;;;21.60;82.50;;;;;;4123364;28;19936;-43
2023/08/18 07:49:24;;;;;;;;;;;21.60;82.50;;;;;;4122360;28;19933;-44
2023/08/18 07:52:06;;;;;;;;;;;21.60;82.50;;;;;;4123511;28;19937;-44
2023/08/18 07:54:47;;;;;;;;;;;21.60;82.50;;;;;;4123012;28;19933;-45
2023/08/18 07:57:28;;;;;;;;;;;21.60;82.50;;;;;;4107019;28;19984;-44
2023/08/18 08:00:15;;;;;;;;;;;21.60;82.60;;;;;;4116681;28;19937;-43
2023/08/18 08:02:57;;;;;;;;;;;21.60;82.70;;;;;;4105759;28;20494;-46
2023/08/18 08:05:38;;;;;;;;;;;21.60;82.70;;;;;;4105032;28;20364;-44
2023/08/18 08:08:22;;;;;;;;;;;21.60;82.60;;;;;;4117192;28;19932;-40
2023/08/18 08:11:03;;;;;;;;;;;21.70;82.90;;;;;;4132767;28;20435;-39
2023/08/18 08:13:44;;;;;;;;;;;21.70;83.00;;;;;;4114165;28;20000;-39
2023/08/18 08:16:24;;;;;;;;;;;21.70;83.10;;;;;;4122382;28;19937;-39
2023/08/18 08:19:05;;;;;;;;;;;21.70;83.00;;;;;;4121320;28;19933;-38
2023/08/18 08:21:46;;;;;;;;;;;21.70;83.10;;;;;;4121214;28;20373;-39
2023/08/18 08:24:29;;;;;;;;;;;21.70;82.90;;;;;;4120512;28;19940;-39
2023/08/18 08:27:10;;;;;;;;;;;21.70;82.90;;;;;;4130793;28;19989;-40
2023/08/18 08:29:51;;;;;;;;;;;21.70;83.00;;;;;;4122301;28;20737;-39
2023/08/18 08:32:32;;;;;;;;;;;21.70;82.90;;;;;;4132595;28;19933;-40
2023/08/18 08:35:13;;;;;;;;;;;21.70;82.80;;;;;;4122723;28;19936;-39
2023/08/18 08:37:54;;;;;;;;;;;21.70;82.80;;;;;;4122099;28;19933;-39
2023/08/18 08:40:36;;;;;;;;;;;21.70;82.80;;;;;;4120570;28;20053;-39
2023/08/18 08:43:17;;;;;;;;;;;21.70;82.70;;;;;;4121829;28;20003;-39
2023/08/18 08:45:59;;;;;;;;;;;21.70;82.70;;;;;;4105283;28;19937;-43
2023/08/18 08:48:45;;;;;;;;;;;21.80;82.70;;;;;;4106471;28;19953;-44
2023/08/18 08:51:28;;;;;;;;;;;21.80;82.80;;;;;;4106087;28;20075;-43
2023/08/18 08:54:11;;;;;;;;;;;21.80;82.70;;;;;;4115672;28;20376;-40
2023/08/18 08:56:53;;;;;;;;;;;21.70;82.70;;;;;;4103555;28;19996;-40
2023/08/18 08:59:34;;;;;;;;;;;21.70;82.60;;;;;;4104815;28;19933;-44
2023/08/18 09:02:15;;;;;;;;;;;21.80;82.70;;;;;;4118160;28;19937;-44
2023/08/18 09:05:00;;;;;;;;;;;21.80;82.60;;;;;;4108098;28;19948;-43
2023/08/18 09:07:41;;;;;;;;;;;21.80;82.70;;;;;;4103729;28;19976;-40
2023/08/18 09:10:22;;;;;;;;;;;21.80;82.90;;;;;;4105997;28;19942;-40
2023/08/18 09:13:04;;;;;;;;;;;21.80;82.90;;;;;;4121662;28;20068;-40
2023/08/18 09:15:46;;;;;;;;;;;21.80;83.00;;;;;;4116974;28;19932;-40
2023/08/18 09:18:27;;;;;;;;;;;21.80;83.00;;;;;;4121906;28;19983;-40
2023/08/18 09:21:08;;;;;;;;;;;21.80;83.10;;;;;;4105027;28;20317;-40
2023/08/18 09:23:54;;;;;;;;;;;21.80;83.20;;;;;;4104690;28;19937;-43
2023/08/18 09:26:35;;;;;;;;;;;21.90;83.30;;;;;;4105293;28;20016;-45
2023/08/18 09:29:18;;;;;;;;;;;21.80;83.30;;;;;;4106022;28;19937;-43
2023/08/18 09:31:59;;;;;;;;;;;21.80;83.40;;;;;;4116952;28;19975;-45
2023/08/18 09:34:40;;;;;;;;;;;21.90;83.40;;;;;;4121960;28;19980;-39
2023/08/18 09:37:21;;;;;;;;;;;21.90;83.40;;;;;;4121242;28;20399;-40
2023/08/18 09:40:05;;;;;;;;;;;21.90;83.50;;;;;;4117608;28;19936;-44
2023/08/18 09:42:46;;;;;;;;;;;21.90;83.70;;;;;;4109050;28;19937;-47
2023/08/18 09:45:28;;;;;;;;;;;21.90;83.80;;;;;;4121826;28;20385;-44
2023/08/18 09:48:11;;;;;;;;;;;22.00;83.80;;;;;;4121501;28;20293;-43
2023/08/18 09:50:54;;;;;;;;;;;22.00;84.60;;;;;;4121834;28;19980;-43
2023/08/18 09:53:36;;;;;;;;;;;22.00;83.50;;;;;;4122012;28;19932;-43
2023/08/18 09:56:25;;;;;;;;;;;22.10;84.30;;;;;;4121410;28;19941;-45
2023/08/18 09:59:12;;;;;;;;;;;22.10;83.30;;;;;;4121431;28;19933;-44
2023/08/18 10:01:55;;;;;;;;;;;22.10;83.30;;;;;;4106301;28;20000;-44
2023/08/18 10:04:38;;;;;;;;;;;22.20;83.20;;;;;;4105150;28;20060;-44
2023/08/18 10:07:19;;;;;;;;;;;22.20;83.20;;;;;;4104605;28;20061;-45
2023/08/18 10:10:00;;;;;;;;;;;22.20;83.10;;;;;;4106547;28;20289;-47
2023/08/18 10:12:43;;;;;;;;;;;22.30;83.10;;;;;;4119752;28;20008;-44
2023/08/18 10:15:24;;;;;;;;;;;22.30;83.10;;;;;;4113488;28;19933;-43
2023/08/18 10:18:09;;;;;;;;;;;22.30;82.90;;;;;;4119169;28;19937;-40
2023/08/18 10:20:50;;;;;;;;;;;22.30;83.70;;;;;;4121517;28;20015;-45
2023/08/18 10:23:31;;;;;;;;;;;22.40;82.70;;;;;;4120804;28;19952;-45
2023/08/18 10:26:14;;;;;;;;;;;22.40;83.50;;;;;;4113250;28;19937;-46
2023/08/18 10:29:13;;;;;;;;;;;22.40;82.50;;;;;;4121665;28;20027;-43
2023/08/18 10:32:08;;;;;;;;;;;22.40;82.50;;;;;;4120424;28;20308;-44
2023/08/18 10:34:51;;;;;;;;;;;22.40;82.40;;;;;;4120133;28;20293;-46
2023/08/18 10:37:32;;;;;;;;;;;22.50;82.50;;;;;;4120780;28;19936;-45
2023/08/18 10:40:22;;;;;;;;;;;22.50;82.40;;;;;;4124377;28;19933;-44
2023/08/18 10:43:03;;;;;;;;;;;22.50;83.20;;;;;;4122361;28;19983;-45
2023/08/18 10:45:49;;;;;;;;;;;22.50;82.30;;;;;;4121383;28;19953;-44
2023/08/18 10:48:32;;;;;;;;;;;22.50;82.10;;;;;;4120875;28;19936;-44
2023/08/18 10:51:15;;;;;;;;;;;22.60;83.00;;;;;;4123041;28;20113;-45
2023/08/18 10:53:56;;;;;;;;;;;22.60;82.30;;;;;;4123828;28;20045;-44
2023/08/18 10:56:37;;;;;;;;;;;22.60;82.20;;;;;;4124313;28;19936;-44
2023/08/18 10:59:18;;;;;;;;;;;22.60;82.20;;;;;;4123971;28;19956;-43
2023/08/18 11:01:59;;;;;;;;;;;22.60;82.30;;;;;;4123861;28;20004;-45
2023/08/18 11:04:40;;;;;;;;;;;22.70;82.70;;;;;;4105980;28;20289;-47
2023/08/18 11:07:24;;;;;;;;;;;22.70;82.40;;;;;;4107930;28;20404;-43
2023/08/18 11:10:13;;;;;;;;;;;22.70;82.30;;;;;;4108083;28;19933;-45
2023/08/18 11:12:56;;;;;;;;;;;22.70;82.20;;;;;;4108092;28;19937;-43
2023/08/18 11:15:36;;;;;;;;;;;22.70;82.10;;;;;;4107133;28;20344;-44
2023/08/18 11:18:17;;;;;;;;;;;22.80;82.30;;;;;;4107901;28;19937;-45
2023/08/18 11:20:58;;;;;;;;;;;22.90;82.40;;;;;;4109519;28;20069;-40
2023/08/18 11:23:41;;;;;;;;;;;22.90;82.30;;;;;;4123678;28;19941;-40
2023/08/18 11:26:22;;;;;;;;;;;22.90;82.40;;;;;;4123907;28;19972;-38
2023/08/18 11:29:03;;;;;;;;;;;22.90;82.40;;;;;;4123789;28;19933;-42
2023/08/18 11:31:46;;;;;;;;;;;23.00;82.10;;;;;;4112694;28;19933;-42
2023/08/18 11:34:29;;;;;;;;;;;23.10;83.10;;;;;;4128165;28;19933;-44
2023/08/18 11:37:10;;;;;;;;;;;23.10;82.40;;;;;;4106424;28;20286;-42
2023/08/18 11:39:53;;;;;;;;;;;23.10;82.80;;;;;;4109948;28;19941;-42
2023/08/18 11:42:34;;;;;;;;;;;23.20;82.70;;;;;;4107289;28;19994;-43
2023/08/18 11:45:16;;;;;;;;;;;23.20;82.10;;;;;;4107778;28;20293;-44
2023/08/18 11:47:58;;;;;;;;;;;23.20;82.30;;;;;;4120707;28;20016;-43
2023/08/18 11:50:42;;;;;;;;;;;23.20;82.20;;;;;;4122625;28;19933;-45
2023/08/18 11:53:24;;;;;;;;;;;23.30;82.10;;;;;;4123436;28;20068;-45
2023/08/18 11:56:06;;;;;;;;;;;23.30;82.90;;;;;;4122515;28;20068;-43
2023/08/18 11:58:47;;;;;;;;;;;23.30;82.00;;;;;;4123403;28;19953;-44
2023/08/18 12:01:32;;;;;;;;;;;23.30;82.20;;;;;;4122078;28;19937;-43
2023/08/18 12:04:14;;;;;;;;;;;23.30;82.20;;;;;;4106055;28;19984;-44
2023/08/18 12:06:55;;;;;;;;;;;23.30;82.30;;;;;;4106937;28;19953;-43
2023/08/18 12:09:36;;;;;;;;;;;23.30;82.10;;;;;;4113886;28;19932;-44
2023/08/18 12:12:20;;;;;;;;;;;23.30;82.00;;;;;;4133572;28;19932;-47
2023/08/18 12:15:02;;;;;;;;;;;23.30;82.10;;;;;;4135815;28;19948;-44
2023/08/18 12:17:43;;;;;;;;;;;23.30;82.20;;;;;;4122295;28;20384;-44
2023/08/18 12:20:24;;;;;;;;;;;23.40;82.40;;;;;;4122693;28;19937;-49
2023/08/18 12:23:05;;;;;;;;;;;23.40;82.50;;;;;;4121628;28;19937;-43
2023/08/18 12:25:46;;;;;;;;;;;23.40;82.50;;;;;;4122811;28;19972;-39
2023/08/18 12:28:28;;;;;;;;;;;23.40;83.00;;;;;;4122201;28;19952;-40
2023/08/18 12:31:09;;;;;;;;;;;23.50;83.90;;;;;;4121883;28;19932;-39
2023/08/18 12:33:50;;;;;;;;;;;23.50;83.20;;;;;;4121722;28;20443;-39
2023/08/18 12:36:30;;;;;;;;;;;23.60;83.10;;;;;;4121667;28;19936;-46
2023/08/18 12:39:11;;;;;;;;;;;23.70;83.00;;;;;;4106545;28;20053;-44
2023/08/18 12:41:52;;;;;;;;;;;23.70;83.40;;;;;;4116833;28;19937;-48
2023/08/18 12:44:34;;;;;;;;;;;23.80;83.80;;;;;;4114707;28;19933;-46
2023/08/18 12:47:17;;;;;;;;;;;23.80;83.80;;;;;;4122539;28;20023;-45
2023/08/18 12:49:59;;;;;;;;;;;23.90;84.60;;;;;;4122693;28;19964;-43
2023/08/18 12:52:40;;;;;;;;;;;23.90;83.70;;;;;;4122846;28;19936;-45
2023/08/18 12:55:20;;;;;;;;;;;24.00;83.30;;;;;;4122751;28;19998;-40
2023/08/18 12:58:01;;;;;;;;;;;24.00;83.10;;;;;;4104806;28;20004;-39
2023/08/18 13:00:43;;;;;;;;;;;24.10;83.30;;;;;;4105486;28;20005;-39
2023/08/18 13:03:27;;;;;;;;;;;24.10;83.60;;;;;;4106044;28;20317;-39
2023/08/18 13:06:09;;;;;;;;;;;24.20;84.50;;;;;;4118275;28;19937;-39
2023/08/18 13:08:49;;;;;;;;;;;24.30;83.90;;;;;;4122562;28;20029;-39
2023/08/18 13:11:33;;;;;;;;;;;24.30;83.50;;;;;;4084705;28;19931;-39
2023/08/18 13:14:17;;;;;;;;;;;24.30;83.90;;;;;;4067724;28;20011;-47
2023/08/18 13:17:00;;;;;;;;;;;24.30;83.60;;;;;;4117150;28;19936;-42
2023/08/18 13:19:44;;;;;;;;;;;24.40;83.50;;;;;;4089926;28;20337;-45
2023/08/18 13:22:31;;;;;;;;;;;24.50;83.50;;;;;;4054571;28;19993;-44
2023/08/18 13:25:15;;;;;;;;;;;24.50;83.40;;;;;;4082601;28;20336;-44
2023/08/18 13:27:56;;;;;;;;;;;24.50;83.70;;;;;;4108105;28;19937;-43
2023/08/18 13:30:37;;;;;;;;;;;24.60;83.70;;;;;;4122556;28;20415;-46
2023/08/18 13:33:19;;;;;;;;;;;24.60;83.40;;;;;;4121316;28;19935;-44
2023/08/18 13:36:00;;;;;;;;;;;24.60;83.60;;;;;;4110621;28;20409;-44
2023/08/18 13:38:41;;;;;;;;;;;24.70;83.70;;;;;;4105695;28;19936;-46
2023/08/18 13:41:21;;;;;;;;;;;24.70;83.40;;;;;;4106106;28;19933;-45
2023/08/18 13:44:03;;;;;;;;;;;24.70;83.40;;;;;;4122026;28;19933;-46
2023/08/18 13:46:44;;;;;;;;;;;24.70;84.30;;;;;;4120292;28;20427;-40
2023/08/18 13:49:27;;;;;;;;;;;24.70;83.40;;;;;;4112857;28;19933;-40
2023/08/18 13:52:08;;;;;;;;;;;24.70;83.50;;;;;;4105160;28;20473;-39
2023/08/18 13:54:48;;;;;;;;;;;24.70;83.70;;;;;;4116111;28;19948;-39
2023/08/18 13:57:29;;;;;;;;;;;24.70;83.70;;;;;;4121502;28;19957;-39
2023/08/18 14:00:10;;;;;;;;;;;24.70;83.40;;;;;;4091095;28;19949;-49
2023/08/18 14:02:51;;;;;;;;;;;24.70;84.30;;;;;;4128099;28;19936;-39
2023/08/18 14:05:33;;;;;;;;;;;24.80;84.20;;;;;;4120122;28;19936;-39
2023/08/18 14:08:14;;;;;;;;;;;24.80;84.10;;;;;;4108543;28;19937;-39
2023/08/18 14:10:55;;;;;;;;;;;24.80;83.90;;;;;;4132812;28;20003;-39
2023/08/18 14:13:37;;;;;;;;;;;24.80;83.80;;;;;;4136508;28;19979;-39
2023/08/18 14:16:18;;;;;;;;;;;24.80;83.90;;;;;;4105546;28;20415;-39
2023/08/18 14:18:59;;;;;;;;;;;24.80;84.10;;;;;;4105014;28;19937;-39
2023/08/18 14:21:43;;;;;;;;;;;24.80;84.30;;;;;;4105269;28;19937;-39
2023/08/18 14:24:25;;;;;;;;;;;24.80;84.50;;;;;;4106935;28;19976;-47
2023/08/18 14:27:05;;;;;;;;;;;24.80;85.40;;;;;;4123851;28;19941;-48
2023/08/18 14:29:46;;;;;;;;;;;24.80;84.80;;;;;;4122754;28;19936;-44
2023/08/18 14:32:27;;;;;;;;;;;24.90;84.40;;;;;;4134370;28;19933;-45
2023/08/18 14:35:09;;;;;;;;;;;24.90;84.50;;;;;;4106982;28;20034;-44
2023/08/18 14:37:51;;;;;;;;;;;24.90;84.90;;;;;;4107785;28;19934;-45
2023/08/18 14:40:32;;;;;;;;;;;24.90;84.70;;;;;;4110871;28;19976;-39
2023/08/18 14:43:13;;;;;;;;;;;25.00;85.40;;;;;;4113569;28;19952;-44
2023/08/18 14:45:58;;;;;;;;;;;25.00;84.80;;;;;;4123801;28;19941;-44
2023/08/18 14:48:39;;;;;;;;;;;25.00;84.80;;;;;;4123852;28;20619;-46
2023/08/18 14:51:19;;;;;;;;;;;25.00;85.70;;;;;;4123750;28;20489;-45
2023/08/18 14:54:03;;;;;;;;;;;25.00;85.60;;;;;;4124235;28;19936;-45
2023/08/18 14:56:44;;;;;;;;;;;25.00;84.80;;;;;;4108286;28;19937;-44
2023/08/18 14:59:24;;;;;;;;;;;25.10;85.00;;;;;;4114898;28;19932;-42
2023/08/18 15:02:05;;;;;;;;;;;25.10;85.50;;;;;;4122552;28;19949;-48
2023/08/18 15:04:47;;;;;;;;;;;25.20;86.20;;;;;;4124526;28;19937;-46
2023/08/18 15:07:28;;;;;;;;;;;25.20;87.40;;;;;;4124756;28;19944;-46
2023/08/18 15:10:10;;;;;;;;;;;25.20;86.50;;;;;;4124143;28;19933;-44
2023/08/18 15:12:51;;;;;;;;;;;25.20;86.50;;;;;;4134021;28;20056;-50
2023/08/18 15:15:32;;;;;;;;;;;25.20;86.90;;;;;;4123676;28;20289;-45
2023/08/18 15:18:13;;;;;;;;;;;25.30;87.00;;;;;;4123248;28;19937;-43
2023/08/18 15:20:53;;;;;;;;;;;25.30;87.00;;;;;;4121685;28;20340;-43
2023/08/18 15:23:34;;;;;;;;;;;25.30;86.80;;;;;;4123557;28;19937;-43
2023/08/18 15:26:16;;;;;;;;;;;25.30;86.60;;;;;;4123589;28;19933;-43
2023/08/18 15:28:57;;;;;;;;;;;25.30;86.40;;;;;;4123049;28;20063;-42
2023/08/18 15:31:38;;;;;;;;;;;25.30;86.20;;;;;;4123834;28;19976;-42
2023/08/18 15:34:18;;;;;;;;;;;25.30;86.20;;;;;;4126270;28;20326;-39
2023/08/18 15:37:00;;;;;;;;;;;25.30;86.20;;;;;;4107531;28;19933;-39
2023/08/18 15:39:40;;;;;;;;;;;25.30;86.20;;;;;;4108053;28;19972;-39